Time;durP1;ratioP1;P1;durP2;ratioP2;P2;SDS_P1;SDS_P2;PMS_P1;PMS_P2;Temp;Humidity;BMP_temperature;BMP_pressure;BME280_temperature;BME280_humidity;BME280_pressure;Samples;Min_cycle;Max_cycle;Signal;HPM_P1;HPM_P2
2022/10/24 00:01:24;;;;;;;6.05;2.72;;;9.30;99.90;;;9.45;100.00;99146.38;5060847;27;119704;-79
2022/10/24 00:03:54;;;;;;;5.40;2.72;;;9.30;99.90;;;9.45;100.00;99140.94;5064125;27;119625;-78
2022/10/24 00:06:22;;;;;;;7.63;3.00;;;9.30;99.90;;;9.44;100.00;99141.25;5063459;27;130456;-79
2022/10/24 00:08:51;;;;;;;7.00;3.00;;;9.30;99.90;;;9.38;100.00;99142.50;5040466;27;129354;-82
2022/10/24 00:11:24;;;;;;;3.92;2.45;;;9.30;99.90;;;9.35;100.00;99150.16;5041747;27;121971;-76
2022/10/24 00:13:58;;;;;;;5.47;2.80;;;9.30;99.90;;;9.34;100.00;99153.97;5029141;27;121004;-76
2022/10/24 00:16:27;;;;;;;5.43;2.70;;;9.30;99.90;;;9.33;100.00;99152.38;5027751;27;128149;-76
2022/10/24 00:18:56;;;;;;;5.15;2.88;;;9.20;99.90;;;9.37;100.00;99140.94;5043037;27;130164;-74
2022/10/24 00:21:24;;;;;;;5.10;2.85;;;9.20;99.90;;;9.42;100.00;99154.31;5028174;27;119277;-75
2022/10/24 00:23:53;;;;;;;6.30;3.00;;;9.20;99.90;;;9.44;100.00;99146.69;5045719;27;119489;-77
2022/10/24 00:26:22;;;;;;;4.15;2.70;;;9.20;99.90;;;9.50;100.00;99145.44;5042600;27;130061;-77
2022/10/24 00:28:50;;;;;;;5.40;2.60;;;9.20;99.90;;;9.49;100.00;99143.81;5043041;27;129449;-76
2022/10/24 00:31:20;;;;;;;5.82;2.78;;;9.20;99.90;;;9.46;100.00;99145.25;5042993;27;120165;-76
2022/10/24 00:33:49;;;;;;;3.92;2.40;;;9.20;99.90;;;9.49;100.00;99155.47;5028012;27;118235;-76
2022/10/24 00:36:21;;;;;;;5.80;2.83;;;9.20;99.90;;;9.49;100.00;99154.66;5041567;27;129866;-79
2022/10/24 00:38:51;;;;;;;4.50;2.65;;;9.20;99.90;;;9.47;100.00;99146.88;5042829;27;129824;-76
2022/10/24 00:41:23;;;;;;;5.30;2.75;;;9.20;99.90;;;9.45;100.00;99156.41;5042594;27;119646;-76
2022/10/24 00:44:12;;;;;;;4.82;2.60;;;9.20;99.90;;;9.43;100.00;99153.22;5042738;27;119276;-76
2022/10/24 00:46:44;;;;;;;4.55;2.65;;;9.20;99.90;;;9.47;100.00;99152.28;5042521;27;129818;-77
2022/10/24 00:49:16;;;;;;;4.32;2.53;;;9.20;99.90;;;9.46;100.00;99150.69;5042118;27;129829;-76
2022/10/24 00:51:48;;;;;;;5.22;2.85;;;9.20;99.90;;;9.47;100.00;99151.47;5042406;27;120224;-77
2022/10/24 00:54:17;;;;;;;6.20;2.88;;;9.20;99.90;;;9.50;100.00;99156.25;5042836;27;119672;-77
2022/10/24 00:56:56;;;;;;;5.65;2.72;;;9.20;99.90;;;9.55;100.00;99156.13;5061218;27;130787;-76
2022/10/24 00:59:26;;;;;;;4.90;2.40;;;9.20;99.90;;;9.58;100.00;99162.81;5042387;27;130412;-75
2022/10/24 01:01:56;;;;;;;4.70;2.70;;;9.20;99.90;;;9.62;100.00;99156.47;5041023;27;122028;-74
2022/10/24 01:04:25;;;;;;;4.57;2.50;;;9.20;99.90;;;9.62;100.00;99159.19;5042173;27;121868;-74
2022/10/24 01:07:09;;;;;;;5.20;3.03;;;9.20;99.90;;;9.59;100.00;99159.03;5027038;27;129764;-75
2022/10/24 01:10:00;;;;;;;4.93;2.83;;;9.10;99.90;;;9.43;100.00;99167.56;5041980;27;129788;-78
2022/10/24 01:12:37;;;;;;;6.43;3.17;;;9.20;99.90;;;9.50;100.00;99164.38;5042283;27;119562;-77
2022/10/24 01:15:19;;;;;;;5.85;2.72;;;9.20;99.90;;;9.51;100.00;99166.78;5041635;27;119753;-74
2022/10/24 01:18:00;;;;;;;5.38;2.80;;;9.20;99.90;;;9.56;100.00;99171.25;5041859;27;130612;-77
2022/10/24 01:21:07;;;;;;;9.88;3.20;;;9.20;99.90;;;9.47;100.00;99165.84;5042187;27;129849;-76
2022/10/24 01:24:23;;;;;;;5.88;3.10;;;9.10;99.90;;;9.49;100.00;99160.06;5044227;27;119769;-76
2022/10/24 01:27:32;;;;;;;3.75;2.40;;;9.10;99.90;;;9.51;100.00;99163.28;5011281;27;119364;-76
2022/10/24 01:30:07;;;;;;;5.10;2.55;;;9.10;99.90;;;9.54;100.00;99168.09;5012857;27;128712;-74
2022/10/24 01:32:48;;;;;;;6.20;2.97;;;9.10;99.90;;;9.56;100.00;99160.44;5041665;27;129972;-74
2022/10/24 01:35:34;;;;;;;6.50;2.90;;;9.10;99.90;;;9.59;100.00;99161.72;5009761;27;119617;-77
2022/10/24 01:38:11;;;;;;;4.82;2.83;;;9.10;99.90;;;9.56;100.00;99168.56;5041933;27;119977;-77
2022/10/24 01:40:51;;;;;;;5.50;2.90;;;9.10;99.90;;;9.53;100.00;99167.25;5041630;27;130491;-76
2022/10/24 01:43:25;;;;;;;4.68;2.53;;;9.10;99.90;;;9.54;100.00;99168.09;5041443;27;129891;-79
2022/10/24 01:46:02;;;;;;;4.65;2.80;;;9.10;99.90;;;9.57;100.00;99166.63;5027137;27;119305;-76
2022/10/24 01:48:36;;;;;;;5.47;3.22;;;9.10;99.90;;;9.60;100.00;99161.41;5027324;27;118683;-75
2022/10/24 01:51:07;;;;;;;5.95;3.40;;;9.10;99.90;;;9.60;100.00;99169.53;5009573;27;129636;-77
2022/10/24 01:53:37;;;;;;;5.80;2.95;;;9.10;99.90;;;9.63;100.00;99171.63;5041385;27;129700;-76
2022/10/24 01:56:06;;;;;;;5.72;2.90;;;9.10;99.90;;;9.55;100.00;99169.66;5040526;27;122597;-76
2022/10/24 01:58:35;;;;;;;4.93;3.00;;;9.10;99.90;;;9.51;100.00;99157.88;5041428;27;122523;-76
2022/10/24 02:01:12;;;;;;;5.80;3.10;;;9.10;99.90;;;9.55;100.00;99164.25;5026334;27;129310;-75
2022/10/24 02:03:47;;;;;;;6.28;3.78;;;9.10;99.90;;;9.58;100.00;99155.50;5023272;27;129740;-76
2022/10/24 02:06:21;;;;;;;6.38;3.50;;;9.00;99.90;;;9.58;100.00;99168.25;5041913;27;120017;-76
2022/10/24 02:08:55;;;;;;;6.63;3.45;;;9.00;99.90;;;9.63;100.00;99170.81;5026921;27;118624;-77
2022/10/24 02:11:24;;;;;;;5.28;3.38;;;9.00;99.90;;;9.64;100.00;99164.28;5036474;27;128667;-78
2022/10/24 02:13:57;;;;;;;5.32;2.78;;;9.00;99.90;;;9.63;100.00;99160.78;5038834;27;128262;-77
2022/10/24 02:16:29;;;;;;;5.75;3.08;;;9.00;99.90;;;9.62;100.00;99164.59;5023214;27;119597;-77
2022/10/24 02:18:58;;;;;;;5.38;3.22;;;9.10;99.90;;;9.62;100.00;99159.19;5041294;27;119228;-75
2022/10/24 02:21:36;;;;;;;4.60;2.58;;;9.00;99.90;;;9.66;100.00;99162.06;5039657;27;130541;-75
2022/10/24 02:24:14;;;;;;;4.95;2.55;;;9.10;99.90;;;9.61;100.00;99156.78;5043489;27;129875;-77
2022/10/24 02:26:54;;;;;;;7.38;3.22;;;9.10;99.90;;;9.58;100.00;99163.63;5026252;27;119629;-77
2022/10/24 02:29:30;;;;;;;6.68;3.30;;;9.10;99.90;;;9.57;100.00;99162.03;5026279;27;119148;-77
2022/10/24 02:32:02;;;;;;;6.63;2.97;;;9.10;99.90;;;9.60;100.00;99166.84;5022695;27;129998;-76
2022/10/24 02:34:34;;;;;;;5.32;3.03;;;9.10;99.90;;;9.61;100.00;99168.41;5040804;27;129574;-77
2022/10/24 02:37:05;;;;;;;5.45;2.97;;;9.00;99.90;;;9.59;100.00;99170.63;5041033;27;119459;-77
2022/10/24 02:39:36;;;;;;;7.55;3.42;;;9.00;99.90;;;9.59;100.00;99170.63;5026426;27;120033;-77
2022/10/24 02:42:07;;;;;;;6.60;3.35;;;9.00;99.90;;;9.59;100.00;99162.50;5040523;27;129990;-77
2022/10/24 02:44:36;;;;;;;7.63;3.63;;;9.00;99.90;;;9.57;100.00;99167.47;5025666;27;128053;-75
2022/10/24 02:47:09;;;;;;;5.95;3.97;;;9.00;99.90;;;9.58;100.00;99179.88;5039415;27;121942;-78
2022/10/24 02:49:37;;;;;;;6.68;3.90;;;9.00;99.90;;;9.61;100.00;99184.66;5040856;27;122470;-78
2022/10/24 02:52:07;;;;;;;6.25;3.15;;;9.00;99.90;;;9.61;100.00;99176.53;5040365;27;129585;-77
2022/10/24 02:54:36;;;;;;;5.72;3.05;;;9.00;99.90;;;9.61;100.00;99181.97;5040329;27;129538;-77
2022/10/24 02:57:05;;;;;;;6.50;3.05;;;9.00;99.90;;;9.61;100.00;99179.25;5040877;27;119633;-77
2022/10/24 02:59:34;;;;;;;5.38;2.90;;;9.00;99.90;;;9.59;100.00;99183.41;5040676;27;119696;-76
2022/10/24 03:02:02;;;;;;;6.38;3.80;;;9.00;99.90;;;9.49;100.00;99187.16;5040500;27;130426;-76
2022/10/24 03:04:33;;;;;;;9.43;4.30;;;8.90;99.90;;;9.23;100.00;99190.53;5040763;27;129746;-77
2022/10/24 03:07:01;;;;;;;6.95;4.13;;;9.00;99.90;;;8.94;100.00;99189.09;5038859;27;119587;-73
2022/10/24 03:09:30;;;;;;;7.90;4.65;;;8.90;99.90;;;8.90;100.00;99193.53;5040590;27;119661;-75
2022/10/24 03:11:58;;;;;;;6.57;3.78;;;9.00;99.90;;;8.90;100.00;99182.69;5038811;27;130678;-74
2022/10/24 03:14:27;;;;;;;7.90;3.50;;;9.00;99.90;;;8.88;100.00;99179.50;5039920;27;130192;-76
2022/10/24 03:16:56;;;;;;;7.65;4.07;;;8.90;99.90;;;8.90;100.00;99185.41;5040625;27;120035;-76
2022/10/24 03:19:24;;;;;;;7.97;5.07;;;8.90;99.90;;;8.87;100.00;99183.31;5040401;27;119269;-75
2022/10/24 03:21:54;;;;;;;9.25;4.47;;;8.90;99.90;;;8.87;100.00;99183.31;5039772;27;130641;-75
2022/10/24 03:24:22;;;;;;;8.82;4.72;;;8.90;99.90;;;8.84;100.00;99189.34;5039860;27;129863;-76
2022/10/24 03:26:51;;;;;;;8.18;4.30;;;8.80;99.90;;;8.84;100.00;99189.34;5025295;27;119208;-75
2022/10/24 03:29:20;;;;;;;7.38;4.28;;;8.80;99.90;;;8.85;100.00;99196.38;5040714;27;119389;-75
2022/10/24 03:31:49;;;;;;;7.15;3.95;;;8.80;99.90;;;8.87;100.00;99194.13;5039752;27;129625;-76
2022/10/24 03:34:17;;;;;;;6.15;4.05;;;8.80;99.90;;;8.85;100.00;99201.78;5058500;27;128952;-76
2022/10/24 03:36:47;;;;;;;8.02;4.88;;;8.80;99.90;;;8.80;100.00;99205.41;5020484;27;122207;-77
2022/10/24 03:39:17;;;;;;;7.40;4.03;;;8.70;99.90;;;8.72;100.00;99208.81;5042282;27;120479;-74
2022/10/24 03:41:45;;;;;;;8.23;3.88;;;8.70;99.90;;;8.63;100.00;99211.47;5039510;27;129725;-78
2022/10/24 03:44:14;;;;;;;8.55;3.88;;;8.70;99.90;;;8.61;100.00;99208.25;5039858;27;129809;-77
2022/10/24 03:46:43;;;;;;;10.35;4.63;;;8.70;99.90;;;8.59;100.00;99215.09;5040196;27;119667;-80
2022/10/24 03:49:11;;;;;;;7.55;4.20;;;8.70;99.90;;;8.55;100.00;99212.16;5025147;27;119040;-76
2022/10/24 03:51:40;;;;;;;8.13;4.28;;;8.60;99.90;;;8.56;100.00;99210.28;5039824;27;129850;-76
2022/10/24 03:54:08;;;;;;;7.30;3.72;;;8.60;99.90;;;8.48;100.00;99228.03;5040133;27;129486;-76
2022/10/24 03:56:38;;;;;;;8.00;4.20;;;8.60;99.90;;;8.55;100.00;99220.28;5055766;27;119521;-77
2022/10/24 03:59:06;;;;;;;7.72;4.63;;;8.60;99.90;;;8.54;100.00;99223.28;5040001;27;121169;-75
2022/10/24 04:01:35;;;;;;;8.38;4.57;;;8.60;99.90;;;8.53;100.00;99227.91;5021149;27;129678;-78
2022/10/24 04:04:04;;;;;;;9.45;5.10;;;8.60;99.90;;;8.47;100.00;99234.53;5017091;28;130623;-74
2022/10/24 04:06:33;;;;;;;9.65;4.75;;;8.50;99.90;;;8.44;100.00;99235.94;5018782;28;119655;-79
2022/10/24 04:09:01;;;;;;;7.95;4.50;;;8.50;99.90;;;8.37;100.00;99240.94;5019156;28;119341;-78
2022/10/24 04:11:30;;;;;;;10.45;5.28;;;8.50;99.90;;;8.37;100.00;99250.97;5001960;27;129684;-77
2022/10/24 04:14:00;;;;;;;8.35;4.85;;;8.50;99.90;;;8.36;100.00;99239.31;5041877;27;129062;-77
2022/10/24 04:16:31;;;;;;;6.57;4.53;;;8.50;99.90;;;8.30;100.00;99240.53;5038886;27;119600;-77
2022/10/24 04:18:59;;;;;;;10.68;5.35;;;8.40;99.90;;;8.31;100.00;99236.75;5040237;27;119363;-77
2022/10/24 04:21:28;;;;;;;8.20;4.50;;;8.40;99.90;;;8.28;100.00;99230.03;5039254;27;130166;-75
2022/10/24 04:23:57;;;;;;;9.63;5.32;;;8.40;99.90;;;8.24;100.00;99230.94;5041156;27;130038;-79
2022/10/24 04:26:26;;;;;;;9.25;4.68;;;8.40;99.90;;;8.18;100.00;99237.53;5038309;27;122042;-81
2022/10/24 04:28:54;;;;;;;8.07;4.80;;;8.30;99.90;;;8.25;100.00;99227.94;5038465;27;121812;-75
2022/10/24 04:31:24;;;;;;;7.20;4.82;;;8.30;99.90;;;8.21;100.00;99231.53;5038795;27;130005;-74
2022/10/24 04:33:52;;;;;;;10.63;5.35;;;8.30;99.90;;;8.19;100.00;99223.72;5038849;27;129871;-76
2022/10/24 04:36:21;;;;;;;11.95;6.90;;;8.20;99.90;;;8.12;100.00;99231.47;5021275;27;120524;-74
2022/10/24 04:38:50;;;;;;;9.93;5.75;;;8.10;98.90;;;8.07;100.00;99226.13;5039584;27;119436;-75
2022/10/24 04:41:18;;;;;;;9.20;5.63;;;8.10;99.10;;;7.98;100.00;99227.94;5039091;27;130312;-76
2022/10/24 04:43:46;;;;;;;10.50;5.32;;;8.10;96.20;;;7.99;100.00;99229.56;5024215;27;128373;-76
2022/10/24 04:46:15;;;;;;;10.00;6.15;;;8.10;98.40;;;7.95;100.00;99236.66;5039419;27;119706;-74
2022/10/24 04:48:45;;;;;;;9.60;6.43;;;8.00;99.30;;;7.99;100.00;99229.56;5040095;27;119420;-77
2022/10/24 04:51:13;;;;;;;12.65;6.25;;;8.00;99.10;;;7.94;100.00;99227.75;5040866;27;130477;-76
2022/10/24 04:53:42;;;;;;;9.13;5.53;;;8.00;99.90;;;7.97;100.00;99229.06;5041937;27;130358;-76
2022/10/24 04:56:10;;;;;;;9.27;5.47;;;8.00;98.40;;;7.85;100.00;99233.06;5042182;27;119565;-75
2022/10/24 04:58:38;;;;;;;9.85;5.97;;;8.00;98.30;;;7.88;100.00;99235.16;5042543;27;120045;-76
2022/10/24 05:01:07;;;;;;;9.73;5.65;;;8.00;97.70;;;8.00;100.00;99236.56;5042382;27;129616;-77
2022/10/24 05:03:35;;;;;;;9.15;5.63;;;8.00;90.80;;;7.91;100.00;99242.66;5042087;27;129530;-76
2022/10/24 05:06:06;;;;;;;10.13;6.03;;;8.00;91.10;;;7.91;100.00;99248.06;5042297;27;119891;-75
2022/10/24 05:08:35;;;;;;;9.93;6.28;;;8.00;92.10;;;7.85;100.00;99251.97;5042785;27;119425;-76
2022/10/24 05:11:04;;;;;;;9.88;6.03;;;7.90;88.70;;;8.00;100.00;99252.78;5024026;27;129991;-76
2022/10/24 05:13:32;;;;;;;9.13;5.95;;;8.00;88.60;;;8.07;100.00;99253.16;5042100;27;129491;-75
2022/10/24 05:16:01;;;;;;;10.98;6.47;;;8.00;89.00;;;8.06;100.00;99251.56;5041187;27;122604;-76
2022/10/24 05:18:30;;;;;;;12.15;7.22;;;8.00;92.70;;;8.09;100.00;99250.97;5042196;27;122443;-75
2022/10/24 05:20:58;;;;;;;10.20;5.30;;;7.90;88.50;;;8.06;100.00;99256.97;5042104;27;129950;-76
2022/10/24 05:23:28;;;;;;;9.00;5.95;;;7.90;88.50;;;8.05;100.00;99252.66;5044399;27;129421;-76
2022/10/24 05:25:57;;;;;;;8.65;5.75;;;7.90;79.10;;;8.02;100.00;99250.56;5042044;27;119440;-77
2022/10/24 05:28:25;;;;;;;8.82;5.63;;;7.90;63.60;;;8.04;100.00;99257.28;5061283;27;119610;-77
2022/10/24 05:30:54;;;;;;;9.90;5.38;;;7.90;56.80;;;8.13;100.00;99251.16;5026663;27;128713;-77
2022/10/24 05:33:23;;;;;;;8.23;5.32;;;7.90;63.00;;;8.21;100.00;99264.78;5061025;27;129293;-77
2022/10/24 05:35:51;;;;;;;8.65;6.10;;;7.90;54.60;;;8.33;100.00;99268.88;5042026;27;119967;-76
2022/10/24 05:38:20;;;;;;;8.57;5.28;;;8.00;47.40;;;8.30;100.00;99267.56;5042045;27;119396;-77
2022/10/24 05:40:50;;;;;;;8.32;5.35;;;8.00;45.00;;;8.31;100.00;99263.00;5040704;27;129626;-78
2022/10/24 05:43:19;;;;;;;8.70;5.65;;;7.90;38.50;;;8.34;100.00;99259.69;5041601;27;129878;-77
2022/10/24 05:45:49;;;;;;;11.43;6.03;;;8.00;34.00;;;8.43;100.00;99253.28;5027058;27;118847;-78
2022/10/24 05:48:18;;;;;;;9.88;6.93;;;8.00;31.20;;;8.45;100.00;99264.59;5041936;27;119588;-77
2022/10/24 05:50:46;;;;;;;11.55;7.88;;;8.00;35.40;;;8.49;100.00;99264.78;5041435;27;129624;-77
2022/10/24 05:53:15;;;;;;;9.80;6.50;;;8.10;33.50;;;8.56;100.00;99270.59;5041035;27;129352;-76
2022/10/24 05:55:43;;;;;;;10.98;6.60;;;8.10;28.30;;;8.59;100.00;99275.38;5041614;27;119454;-77
2022/10/24 05:58:13;;;;;;;11.18;7.45;;;8.20;29.00;;;8.58;100.00;99281.09;5041766;27;120179;-77
2022/10/24 06:00:42;;;;;;;9.50;6.97;;;8.10;26.00;;;8.68;100.00;99282.78;5040832;27;129963;-77
2022/10/24 06:03:12;;;;;;;13.80;8.35;;;8.20;25.40;;;8.61;100.00;99283.97;5026483;27;129003;-76
2022/10/24 06:05:41;;;;;;;12.02;7.10;;;8.10;18.00;;;8.59;100.00;99277.28;5022121;27;121867;-78
2022/10/24 06:08:09;;;;;;;44.25;23.33;;;8.10;20.50;;;8.68;100.00;99277.38;5041504;27;121817;-77
2022/10/24 06:10:38;;;;;;;30.42;17.17;;;8.20;23.60;;;8.66;100.00;99280.38;5026434;27;129522;-76
2022/10/24 06:13:07;;;;;;;23.65;13.95;;;8.20;18.60;;;8.53;100.00;99284.72;5040970;27;129821;-75
2022/10/24 06:15:37;;;;;;;13.75;8.73;;;8.20;5.10;;;8.64;100.00;99288.78;5041476;27;119636;-78
2022/10/24 06:18:06;;;;;;;16.17;9.73;;;8.30;15.50;;;8.76;99.37;99292.91;5009848;27;118613;-76
2022/10/24 06:20:34;;;;;;;29.45;15.43;;;8.30;7.50;;;8.78;99.14;99304.22;5040857;27;130031;-77
2022/10/24 06:23:03;;;;;;;14.20;8.55;;;8.40;9.10;;;8.84;98.96;99288.66;5043039;27;130276;-77
2022/10/24 06:25:32;;;;;;;14.77;8.85;;;8.40;7.60;;;8.96;98.38;99284.31;5041359;27;119791;-77
2022/10/24 06:28:00;;;;;;;10.02;6.40;;;8.50;6.20;;;9.17;96.27;99283.84;5026246;27;118693;-77
2022/10/24 06:30:29;;;;;;;10.43;6.95;;;8.60;1.00;;;9.42;95.60;99270.78;5039542;27;129863;-78
2022/10/24 06:33:01;;;;;;;11.95;6.97;;;8.80;1.00;;;9.59;94.42;99273.59;5040690;27;130201;-78
2022/10/24 06:35:30;;;;;;;12.65;9.07;;;8.90;1.00;;;9.47;93.11;99257.94;5041041;27;119692;-77
2022/10/24 06:37:58;;;;;;;12.27;7.88;;;8.70;1.00;;;9.21;94.81;99259.66;5062438;27;118710;-77
2022/10/24 06:40:27;;;;;;;9.02;5.57;;;8.50;1.00;;;9.24;95.40;99272.56;5043663;27;131310;-77
2022/10/24 06:42:56;;;;;;;8.18;5.25;;;8.60;1.00;;;9.32;94.96;99278.06;5040537;27;129714;-77
2022/10/24 06:45:25;;;;;;;8.98;5.25;;;8.60;1.00;;;9.17;94.42;99283.84;5040997;27;119537;-77
2022/10/24 06:47:53;;;;;;;8.23;5.07;;;8.50;1.00;;;9.27;95.23;99283.59;5041072;27;120133;-77
2022/10/24 06:50:23;;;;;;;10.07;5.68;;;8.70;1.00;;;9.33;93.81;99276.97;5040455;27;129782;-76
2022/10/24 06:52:52;;;;;;;8.38;5.53;;;8.60;1.00;;;9.27;94.38;99266.53;5025459;27;128996;-77
2022/10/24 06:55:20;;;;;;;9.70;6.57;;;8.60;1.00;;;9.29;94.36;99272.47;5039024;27;122120;-77
2022/10/24 06:57:49;;;;;;;9.02;6.03;;;8.60;1.00;;;9.37;94.82;99279.03;5040448;27;121573;-77
2022/10/24 07:00:18;;;;;;;8.38;4.88;;;8.70;1.00;;;9.44;93.92;99287.53;5040491;27;130829;-77
2022/10/24 07:02:47;;;;;;;8.80;5.47;;;8.80;1.00;;;9.43;93.45;99283.22;5036825;27;129528;-76
2022/10/24 07:05:16;;;;;;;7.55;4.95;;;8.70;1.00;;;9.37;93.68;99287.97;5022727;27;119563;-76
2022/10/24 07:07:46;;;;;;;10.65;7.20;;;8.70;1.00;;;9.56;93.25;99293.19;5039833;27;119451;-77
2022/10/24 07:10:15;;;;;;;9.40;6.43;;;8.90;1.00;;;9.44;92.90;99291.06;5024501;27;129771;-75
2022/10/24 07:12:44;;;;;;;10.48;6.47;;;8.70;1.00;;;9.54;92.89;99290.00;5038943;27;129201;-76
2022/10/24 07:15:12;;;;;;;11.88;6.38;;;8.70;1.00;;;9.57;92.63;99302.91;5040459;27;120230;-76
2022/10/24 07:17:42;;;;;;;10.07;5.63;;;8.80;1.00;;;9.50;92.77;99294.41;5040177;27;120243;-76
2022/10/24 07:20:13;;;;;;;8.60;5.40;;;8.70;1.00;;;9.73;92.91;99305.25;5007094;27;128831;-77
2022/10/24 07:22:44;;;;;;;8.43;4.75;;;9.00;1.00;;;9.64;93.17;99297.03;5024686;27;129073;-78
2022/10/24 07:25:14;;;;;;;9.80;5.65;;;8.90;1.00;;;9.82;92.56;99292.53;5059546;27;118851;-74
2022/10/24 07:27:42;;;;;;;10.45;5.80;;;9.10;1.00;;;9.86;92.14;99296.22;5040429;27;119304;-77
2022/10/24 07:30:17;;;;;;;8.52;5.90;;;9.10;1.00;;;9.93;91.72;99298.50;5038494;27;129767;-79
2022/10/24 07:32:47;;;;;;;9.50;5.72;;;9.20;1.00;;;10.19;90.07;99304.00;5024691;27;129653;-79
2022/10/24 07:35:16;;;;;;;9.85;5.20;;;9.20;1.00;;;10.27;89.25;99292.41;5039646;27;119995;-78
2022/10/24 07:37:44;;;;;;;13.35;5.50;;;9.20;1.00;;;10.37;88.54;99302.97;5040047;27;119445;-79
2022/10/24 07:40:14;;;;;;;7.70;5.20;;;9.30;1.00;;;10.26;88.79;99307.84;5021401;27;129812;-78
2022/10/24 07:42:43;;;;;;;9.52;6.22;;;9.20;1.00;;;10.15;88.72;99314.69;5039513;27;129358;-79
2022/10/24 07:45:12;;;;;;;10.80;6.00;;;9.10;1.00;;;10.18;89.08;99315.97;5038815;27;121868;-79
2022/10/24 07:47:41;;;;;;;9.38;5.30;;;9.20;1.00;;;10.19;88.58;99317.56;5025109;27;121419;-74
2022/10/24 07:50:11;;;;;;;9.02;5.60;;;9.20;1.00;;;10.26;88.04;99323.34;5039388;27;129780;-74
2022/10/24 07:52:39;;;;;;;9.55;5.35;;;9.30;1.00;;;10.36;87.45;99328.53;5039829;27;129681;-77
2022/10/24 07:55:08;;;;;;;9.63;5.70;;;9.30;1.00;;;10.71;85.73;99331.31;5021607;27;119526;-77
2022/10/24 07:57:38;;;;;;;9.45;6.13;;;9.70;1.00;;;11.14;84.52;99335.19;5039440;27;119531;-77
2022/10/24 08:00:09;;;;;;;9.13;6.13;;;10.00;1.00;;;11.70;81.99;99335.31;5039105;27;129849;-77
2022/10/24 08:02:43;;;;;;;8.95;6.15;;;10.40;1.00;;;12.15;79.87;99332.19;5039389;27;129656;-77
2022/10/24 08:05:13;;;;;;;12.05;6.18;;;10.80;1.00;;;12.35;78.21;99332.59;5039633;27;119625;-77
2022/10/24 08:07:41;;;;;;;8.50;5.80;;;10.90;1.00;;;12.59;76.83;99337.44;5041771;27;118571;-77
2022/10/24 08:10:13;;;;;;;10.98;6.32;;;11.00;1.00;;;12.90;74.71;99342.53;5025388;27;129568;-77
2022/10/24 08:12:43;;;;;;;8.98;5.78;;;11.10;1.00;;;13.29;72.39;99348.66;5038789;27;129522;-77
2022/10/24 08:15:12;;;;;;;8.30;5.07;;;11.20;1.00;;;13.23;71.61;99344.53;5036139;27;119504;-77
2022/10/24 08:17:41;;;;;;;9.60;5.65;;;10.90;1.00;;;13.14;70.95;99338.34;5039528;27;119480;-76
2022/10/24 08:20:11;;;;;;;8.25;5.60;;;10.80;1.00;;;12.87;72.33;99343.19;5023681;27;129074;-76
2022/10/24 08:22:40;;;;;;;9.60;6.22;;;10.70;1.00;;;12.41;74.26;99362.00;5039437;27;129549;-76
2022/10/24 08:25:10;;;;;;;9.63;6.18;;;10.30;1.00;;;12.22;76.21;99359.69;5011789;27;119609;-77
2022/10/24 08:27:38;;;;;;;10.02;5.68;;;10.40;1.00;;;11.86;77.90;99360.88;5043298;27;119468;-76
2022/10/24 08:30:10;;;;;;;10.88;6.07;;;10.20;1.00;;;11.80;78.38;99356.72;5024436;27;130355;-76
2022/10/24 08:32:38;;;;;;;11.00;6.43;;;10.20;1.00;;;11.81;78.53;99362.97;5042504;27;129546;-76
2022/10/24 08:35:08;;;;;;;10.63;6.45;;;10.20;1.00;;;11.83;78.32;99361.53;5041385;27;122515;-76
2022/10/24 08:37:39;;;;;;;10.40;5.22;;;10.30;1.00;;;11.82;78.01;99343.59;5024257;27;122024;-75
2022/10/24 08:40:11;;;;;;;11.02;5.97;;;10.30;1.00;;;11.59;78.70;99340.28;5042184;27;129811;-75
2022/10/24 08:42:40;;;;;;;9.82;5.85;;;10.10;1.00;;;11.39;80.05;99330.06;5041955;27;129834;-75
2022/10/24 08:45:17;;;;;;;11.57;6.40;;;10.00;1.00;;;11.28;80.47;99340.47;5027929;27;118942;-74
2022/10/24 08:47:53;;;;;;;12.95;6.78;;;10.00;1.00;;;11.49;79.60;99335.19;5027989;27;118572;-75
2022/10/24 08:50:27;;;;;;;10.23;6.25;;;10.10;1.00;;;11.81;78.37;99336.59;5040518;27;131380;-76
2022/10/24 08:53:02;;;;;;;8.10;5.50;;;10.40;1.00;;;11.91;77.24;99334.66;4991340;28;128811;-77
2022/10/24 08:55:38;;;;;;;7.68;4.32;;;10.40;1.00;;;12.31;76.13;99353.41;5007126;28;119158;-76
2022/10/24 08:58:13;;;;;;;8.40;5.38;;;10.80;1.00;;;12.20;76.43;99353.78;5021563;28;119569;-76
2022/10/24 09:00:46;;;;;;;7.63;5.18;;;10.70;1.00;;;12.13;76.06;99353.47;5005585;28;129681;-76
2022/10/24 09:03:25;;;;;;;9.68;5.68;;;10.50;1.00;;;11.85;76.87;99347.59;5021765;28;129837;-76
2022/10/24 09:05:57;;;;;;;8.63;5.00;;;10.30;1.00;;;11.71;78.63;99347.00;5036570;27;120162;-75
2022/10/24 09:08:35;;;;;;;9.70;5.43;;;10.40;1.00;;;12.29;75.81;99344.78;5037580;27;119419;-78
2022/10/24 09:11:07;;;;;;;8.88;5.72;;;10.80;1.00;;;12.52;74.89;99343.38;5021180;28;129835;-76
2022/10/24 09:13:38;;;;;;;9.85;5.10;;;10.70;1.00;;;12.56;74.01;99338.88;5021652;28;129568;-75
2022/10/24 09:16:14;;;;;;;9.27;5.00;;;10.90;1.00;;;12.61;74.38;99345.28;5021500;28;119465;-77
2022/10/24 09:18:46;;;;;;;9.05;5.20;;;11.00;1.00;;;12.74;73.91;99328.69;5022641;28;119716;-76
2022/10/24 09:21:15;;;;;;;9.18;5.40;;;11.10;1.00;;;12.88;73.62;99333.88;5023467;28;129235;-76
2022/10/24 09:23:45;;;;;;;10.30;6.20;;;11.30;1.00;;;13.00;71.68;99321.50;5023718;28;129449;-76
2022/10/24 09:26:18;;;;;;;8.27;5.70;;;11.30;1.00;;;13.06;72.41;99312.78;5020948;28;121888;-76
2022/10/24 09:28:47;;;;;;;9.05;5.20;;;11.40;1.00;;;12.83;72.26;99311.50;5021887;28;121696;-76
2022/10/24 09:31:20;;;;;;;9.00;6.05;;;11.10;1.00;;;12.61;73.71;99313.41;5006753;28;129004;-76
2022/10/24 09:33:50;;;;;;;9.80;7.05;;;11.00;1.00;;;12.44;73.41;99314.28;5021503;28;129728;-76
2022/10/24 09:36:23;;;;;;;12.43;8.27;;;10.80;1.00;;;12.33;74.47;99308.44;5006454;28;118961;-75
2022/10/24 09:38:52;;;;;;;13.25;10.38;;;10.90;1.00;;;12.51;74.50;99306.41;5021980;28;119400;-75
2022/10/24 09:41:24;;;;;;;11.80;9.85;;;11.10;1.00;;;12.64;73.67;99298.34;5021355;28;130106;-76
2022/10/24 09:43:56;;;;;;;9.80;6.43;;;11.20;1.00;;;12.63;72.89;99302.97;5021359;28;129769;-76
2022/10/24 09:46:29;;;;;;;8.73;5.68;;;11.10;1.00;;;12.62;73.27;99295.94;5020861;28;119711;-75
2022/10/24 09:49:01;;;;;;;11.82;6.25;;;11.20;1.00;;;12.73;71.94;99288.97;5021610;28;119171;-75
2022/10/24 09:51:35;;;;;;;9.60;5.97;;;11.30;1.00;;;12.61;72.28;99297.06;5020044;28;129765;-77
2022/10/24 09:54:25;;;;;;;9.05;5.63;;;10.90;1.00;;;12.71;72.29;99301.31;5040205;27;129079;-77
2022/10/24 09:56:58;;;;;;;10.15;6.75;;;11.40;1.00;;;13.15;70.10;99304.53;5003650;28;119876;-77
2022/10/24 09:59:37;;;;;;;10.75;6.07;;;11.40;1.00;;;13.20;69.42;99296.16;5006904;28;119726;-77
2022/10/24 10:02:23;;;;;;;8.75;5.85;;;11.40;1.00;;;13.02;70.63;99295.50;5020983;28;129787;-78
2022/10/24 10:05:20;;;;;;;8.63;5.40;;;11.30;1.00;;;12.92;70.68;99302.13;5006184;28;128630;-77
2022/10/24 10:07:50;;;;;;;9.18;5.35;;;11.40;1.00;;;13.40;71.10;99297.28;5020997;28;119822;-77
2022/10/24 10:10:32;;;;;;;9.35;5.55;;;12.00;1.00;;;13.46;68.30;99308.78;5021681;28;119452;-76
2022/10/24 10:13:18;;;;;;;8.10;5.53;;;11.90;1.00;;;13.41;68.61;99319.88;5021352;28;130473;-76
2022/10/24 10:15:49;;;;;;;9.77;5.85;;;11.80;1.00;;;13.28;68.86;99319.81;5021081;28;129497;-76
2022/10/24 10:18:33;;;;;;;9.23;5.57;;;11.70;1.00;;;13.54;67.64;99321.53;5005303;28;121694;-76
2022/10/24 10:21:10;;;;;;;10.93;6.68;;;12.00;1.00;;;13.85;66.82;99320.25;5003349;28;123907;-77
2022/10/24 10:23:40;;;;;;;;;;;12.10;1.00;;;13.79;67.20;99321.59;5023775;28;130768;-78
2022/10/24 10:26:22;;;;;;;12.30;6.95;;;12.10;1.00;;;13.86;66.88;99323.78;5021211;28;130502;-78
2022/10/24 10:29:01;;;;;;;10.55;6.80;;;11.80;1.00;;;13.72;66.78;99326.81;5036725;27;119954;-79
2022/10/24 10:31:42;;;;;;;17.67;11.55;;;11.70;1.00;;;13.59;67.32;99321.31;5006041;28;118915;-78
2022/10/24 10:34:23;;;;;;;25.23;19.63;;;11.70;1.00;;;13.78;65.89;99320.00;5019866;27;129909;-78
2022/10/24 10:37:23;;;;;;;47.95;40.40;;;11.70;1.00;;;13.71;67.48;99319.75;5020016;28;130007;-78
2022/10/24 10:40:22;;;;;;;15.27;7.35;;;11.90;1.00;;;13.77;66.51;99318.41;5002742;28;119536;-77